createdAt,value
2023-04-27T00:02:13.830Z,53.30
2023-04-27T00:04:41.970Z,53.37
2023-04-27T00:07:10.059Z,53.03
2023-04-27T00:09:38.392Z,53.29
2023-04-27T00:12:07.140Z,53.45
2023-04-27T00:14:34.865Z,53.62
2023-04-27T00:17:02.858Z,53.67
2023-04-27T00:19:30.700Z,53.52
2023-04-27T00:22:00.392Z,53.37
2023-04-27T00:24:28.959Z,53.66
2023-04-27T00:26:57.851Z,53.42
2023-04-27T00:29:25.777Z,53.82
2023-04-27T00:31:53.707Z,53.85
2023-04-27T00:34:21.766Z,53.89
2023-04-27T00:36:49.548Z,53.95
2023-04-27T00:39:17.959Z,53.89
2023-04-27T00:41:46.319Z,54.08
2023-04-27T00:44:14.072Z,54.02
2023-04-27T00:46:41.972Z,54.04
2023-04-27T00:49:09.722Z,54.04
2023-04-27T00:51:37.513Z,54.08
2023-04-27T00:54:06.269Z,54.27
2023-04-27T00:56:34.552Z,54.23
2023-04-27T00:59:02.337Z,54.13
2023-04-27T01:01:30.577Z,54.27
2023-04-27T01:03:58.657Z,54.18
2023-04-27T01:06:28.284Z,54.29
2023-04-27T01:08:56.681Z,54.25
2023-04-27T01:11:25.086Z,54.57
2023-04-27T01:13:54.887Z,54.41
2023-04-27T01:16:22.921Z,54.57
2023-04-27T01:18:50.769Z,54.54
2023-04-27T01:21:19.086Z,54.74
2023-04-27T01:23:47.486Z,54.73
2023-04-27T01:26:16.553Z,54.68
2023-04-27T01:28:44.460Z,54.82
2023-04-27T01:31:12.644Z,54.81
2023-04-27T01:33:41.446Z,54.87
2023-04-27T01:36:10.216Z,54.77
2023-04-27T01:38:38.107Z,54.84
2023-04-27T01:41:09.167Z,54.94
2023-04-27T01:43:37.416Z,55.05
2023-04-27T01:46:13.301Z,55.14
2023-04-27T01:48:41.908Z,55.07
2023-04-27T01:51:09.724Z,55.09
2023-04-27T01:53:37.492Z,55.29
2023-04-27T01:56:06.883Z,55.18
2023-04-27T01:58:35.126Z,55.18
2023-04-27T02:01:02.934Z,55.37
2023-04-27T02:03:30.985Z,55.34
2023-04-27T02:05:58.956Z,55.36
2023-04-27T02:08:26.863Z,55.46
2023-04-27T02:10:55.330Z,55.52
2023-04-27T02:13:23.614Z,55.58
2023-04-27T02:15:51.530Z,55.56
2023-04-27T02:18:20.285Z,55.53
2023-04-27T02:20:48.176Z,55.61
2023-04-27T02:23:16.004Z,55.64
2023-04-27T02:25:46.968Z,55.72
2023-04-27T02:28:15.728Z,55.77
2023-04-27T02:30:44.178Z,55.88
2023-04-27T02:33:11.989Z,55.81
2023-04-27T02:35:39.768Z,55.93
2023-04-27T02:38:07.559Z,55.90
2023-04-27T02:40:35.981Z,56.03
2023-04-27T02:43:04.322Z,56.09
2023-04-27T02:45:32.115Z,55.99
2023-04-27T02:47:59.975Z,56.14
2023-04-27T02:50:27.744Z,56.08
2023-04-27T02:52:56.467Z,56.20
2023-04-27T02:55:24.738Z,56.15
2023-04-27T02:57:52.506Z,56.25
2023-04-27T03:00:20.446Z,56.19
2023-04-27T03:02:48.317Z,56.32
2023-04-27T03:05:17.017Z,56.30
2023-04-27T03:07:45.175Z,56.36
2023-04-27T03:10:12.921Z,56.51
2023-04-27T03:12:40.755Z,56.31
2023-04-27T03:15:09.212Z,56.47
2023-04-27T03:17:36.975Z,56.34
2023-04-27T03:20:09.502Z,56.52
2023-04-27T03:22:37.308Z,56.45
2023-04-27T03:25:06.119Z,56.70
2023-04-27T03:27:33.906Z,56.57
2023-04-27T03:30:01.774Z,56.79
2023-04-27T03:32:29.534Z,56.69
2023-04-27T03:34:57.519Z,56.71
2023-04-27T03:37:25.280Z,56.73
2023-04-27T03:39:53.021Z,56.80
2023-04-27T03:42:20.831Z,56.84
2023-04-27T03:44:48.630Z,56.86
2023-04-27T03:47:16.421Z,56.84
2023-04-27T03:49:44.149Z,56.87
2023-04-27T03:52:11.969Z,56.91
2023-04-27T03:54:39.723Z,57.00
2023-04-27T03:57:07.826Z,57.00
2023-04-27T03:59:35.634Z,57.01
2023-04-27T04:02:05.590Z,57.11
2023-04-27T04:04:33.757Z,57.10
2023-04-27T04:07:01.767Z,57.05
2023-04-27T04:09:29.579Z,57.00
2023-04-27T04:11:58.029Z,57.15
2023-04-27T04:14:26.222Z,57.26
2023-04-27T04:16:54.606Z,57.16
2023-04-27T04:19:22.561Z,57.31
2023-04-27T04:21:50.791Z,57.33
2023-04-27T04:24:18.897Z,57.32
2023-04-27T04:26:47.334Z,57.26
2023-04-27T04:29:15.950Z,57.25
2023-04-27T04:31:44.559Z,57.51
2023-04-27T04:34:12.936Z,57.45
2023-04-27T04:36:40.689Z,57.37
2023-04-27T04:39:08.517Z,57.37
2023-04-27T04:41:36.708Z,57.52
2023-04-27T04:44:06.181Z,57.55
2023-04-27T04:46:34.012Z,57.59
2023-04-27T04:49:02.769Z,57.44
2023-04-27T04:51:30.862Z,57.53
2023-04-27T04:54:01.149Z,57.47
2023-04-27T04:56:30.471Z,57.57
2023-04-27T04:58:58.683Z,57.55
2023-04-27T05:01:26.681Z,57.54
2023-04-27T05:03:54.613Z,57.52
2023-04-27T05:06:22.576Z,57.63
2023-04-27T05:08:50.363Z,57.70
2023-04-27T05:11:18.915Z,57.71
2023-04-27T05:13:48.056Z,57.63
2023-04-27T05:16:16.409Z,57.72
2023-04-27T05:18:44.261Z,57.72
2023-04-27T05:21:17.666Z,57.64
2023-04-27T05:23:45.445Z,57.81
2023-04-27T05:26:18.395Z,57.70
2023-04-27T05:28:47.250Z,57.81
2023-04-27T05:31:15.074Z,57.80
2023-04-27T05:33:42.872Z,57.65
2023-04-27T05:36:11.112Z,57.69
2023-04-27T05:38:40.594Z,57.57
2023-04-27T05:41:09.018Z,57.65
2023-04-27T05:43:38.757Z,57.72
2023-04-27T05:46:06.807Z,57.77
2023-04-27T05:48:35.289Z,57.84
2023-04-27T05:51:04.188Z,57.85
2023-04-27T05:53:34.705Z,57.91
2023-04-27T05:56:04.523Z,58.07
2023-04-27T05:58:33.699Z,58.11
2023-04-27T06:01:03.482Z,57.90
2023-04-27T06:03:31.587Z,58.17
2023-04-27T06:06:01.281Z,57.93
2023-04-27T06:08:29.844Z,57.97
2023-04-27T06:10:57.990Z,57.93
2023-04-27T06:13:26.350Z,57.92
2023-04-27T06:15:54.608Z,58.20
2023-04-27T06:18:22.428Z,58.16
2023-04-27T06:20:50.625Z,58.04
2023-04-27T06:23:18.452Z,58.08
2023-04-27T06:25:46.297Z,57.67
2023-04-27T06:28:14.612Z,58.09
2023-04-27T06:30:42.921Z,58.04
2023-04-27T06:33:10.908Z,58.16
2023-04-27T06:35:38.873Z,58.22
2023-04-27T06:38:07.695Z,58.11
2023-04-27T06:40:37.101Z,58.27
2023-04-27T06:43:05.410Z,58.05
2023-04-27T06:45:33.654Z,58.12
2023-04-27T06:48:01.589Z,58.18
2023-04-27T06:50:30.641Z,58.29
2023-04-27T06:52:58.430Z,58.37
2023-04-27T06:55:26.489Z,58.10
2023-04-27T06:57:54.783Z,58.21
2023-04-27T07:00:23.184Z,58.13
2023-04-27T07:02:51.756Z,58.32
2023-04-27T07:05:20.138Z,58.44
2023-04-27T07:07:47.932Z,58.36
2023-04-27T07:10:16.048Z,58.37
2023-04-27T07:12:44.667Z,58.46
2023-04-27T07:15:13.519Z,58.40
2023-04-27T07:17:41.941Z,58.10
2023-04-27T07:20:10.096Z,57.96
2023-04-27T07:22:38.027Z,57.12
2023-04-27T07:25:06.858Z,57.56
2023-04-27T07:27:35.947Z,57.59
2023-04-27T07:30:05.603Z,57.49
2023-04-27T07:32:33.614Z,57.54
2023-04-27T07:35:01.865Z,57.70
2023-04-27T07:37:29.714Z,57.79
2023-04-27T07:39:59.936Z,57.82
2023-04-27T07:42:28.337Z,57.76
2023-04-27T07:44:57.380Z,57.78
2023-04-27T07:47:25.216Z,57.61
2023-04-27T07:49:53.176Z,57.34
2023-04-27T07:52:20.994Z,57.36
2023-04-27T07:54:49.497Z,57.65
2023-04-27T07:57:17.292Z,57.62
2023-04-27T07:59:46.648Z,57.69
2023-04-27T08:02:19.746Z,57.62
2023-04-27T08:04:48.882Z,57.66
2023-04-27T08:07:18.926Z,57.67
2023-04-27T08:09:47.345Z,57.79
2023-04-27T08:12:15.098Z,57.81
2023-04-27T08:14:42.865Z,57.89
2023-04-27T08:17:11.455Z,57.98
2023-04-27T08:19:41.165Z,57.95
2023-04-27T08:22:09.066Z,57.62
2023-04-27T08:24:37.601Z,57.63
2023-04-27T08:27:08.943Z,57.70
2023-04-27T08:29:37.062Z,57.71
2023-04-27T08:32:05.380Z,57.68
2023-04-27T08:34:33.698Z,57.64
2023-04-27T08:37:02.469Z,57.42
2023-04-27T08:39:30.487Z,57.43
2023-04-27T08:41:58.356Z,57.29
2023-04-27T08:44:26.353Z,56.93
2023-04-27T08:46:54.236Z,57.15
2023-04-27T08:49:22.721Z,57.00
2023-04-27T08:51:50.468Z,56.72
2023-04-27T08:54:19.579Z,56.65
2023-04-27T08:56:47.334Z,56.49
2023-04-27T08:59:16.548Z,55.90
2023-04-27T09:01:49.675Z,55.91
2023-04-27T09:04:18.710Z,55.97
2023-04-27T09:06:46.644Z,55.99
2023-04-27T09:09:25.568Z,56.24
2023-04-27T09:11:53.391Z,55.96
2023-04-27T09:14:23.646Z,55.43
2023-04-27T09:16:59.780Z,54.90
2023-04-27T09:19:29.356Z,55.05
2023-04-27T09:22:05.126Z,55.31
2023-04-27T09:24:33.038Z,55.38
2023-04-27T09:27:01.874Z,55.47
2023-04-27T09:29:38.115Z,54.93
2023-04-27T09:32:20.689Z,55.01
2023-04-27T09:34:48.643Z,55.06
2023-04-27T09:37:16.627Z,55.17
2023-04-27T09:39:45.894Z,55.07
2023-04-27T09:42:13.754Z,54.92
2023-04-27T09:44:41.574Z,54.39
2023-04-27T09:47:10.804Z,54.82
2023-04-27T09:49:39.003Z,54.62
2023-04-27T09:52:06.748Z,54.72
2023-04-27T09:54:36.164Z,54.20
2023-04-27T09:57:17.451Z,54.60
2023-04-27T10:00:29.325Z,54.32
2023-04-27T10:03:12.233Z,54.01
2023-04-27T10:05:46.356Z,54.19
2023-04-27T10:08:15.254Z,54.16
2023-04-27T10:10:48.126Z,53.27
2023-04-27T10:13:27.156Z,53.31
2023-04-27T10:15:54.967Z,53.93
2023-04-27T10:18:28.038Z,53.10
2023-04-27T10:20:55.974Z,53.33
2023-04-27T10:23:27.050Z,52.87
2023-04-27T10:25:55.249Z,53.04
2023-04-27T10:28:23.243Z,52.70
2023-04-27T10:30:52.048Z,53.18
2023-04-27T10:33:22.806Z,53.23
2023-04-27T10:35:56.946Z,53.30
2023-04-27T10:38:30.811Z,53.32
2023-04-27T10:41:05.114Z,53.47
2023-04-27T10:43:35.925Z,53.03
2023-04-27T10:46:12.029Z,53.28
2023-04-27T10:48:41.221Z,51.47
2023-04-27T10:51:09.211Z,52.37
2023-04-27T10:53:37.768Z,52.91
2023-04-27T10:56:07.179Z,51.45
2023-04-27T10:58:48.313Z,52.54
2023-04-27T11:01:27.506Z,52.39
2023-04-27T11:04:00.164Z,52.75
2023-04-27T11:06:30.420Z,52.72
2023-04-27T11:08:58.304Z,52.88
2023-04-27T11:11:26.549Z,52.72
2023-04-27T11:13:55.998Z,52.54
2023-04-27T11:16:24.292Z,52.65
2023-04-27T11:18:52.652Z,52.54
2023-04-27T11:21:21.671Z,52.41
2023-04-27T11:23:49.490Z,52.03
2023-04-27T11:26:19.844Z,50.48
2023-04-27T11:28:57.997Z,50.37
2023-04-27T11:31:27.420Z,51.27
2023-04-27T11:33:56.083Z,51.37
2023-04-27T11:36:24.537Z,51.33
2023-04-27T11:38:58.400Z,49.75
2023-04-27T11:41:37.404Z,50.85
2023-04-27T11:44:08.362Z,51.01
2023-04-27T11:46:38.260Z,51.05
2023-04-27T11:49:09.133Z,50.73
2023-04-27T11:51:37.757Z,50.56
2023-04-27T11:54:07.592Z,49.82
2023-04-27T11:56:37.971Z,50.16
2023-04-27T11:59:06.923Z,49.56
2023-04-27T12:01:37.994Z,49.95
2023-04-27T12:04:06.442Z,50.07
2023-04-27T12:06:34.840Z,50.15
2023-04-27T12:09:03.951Z,50.19
2023-04-27T12:11:31.812Z,49.82
2023-04-27T12:14:00.138Z,50.01
2023-04-27T12:16:28.134Z,49.98
2023-04-27T12:18:56.002Z,49.72
2023-04-27T12:21:24.401Z,49.99
2023-04-27T12:23:52.904Z,50.01
2023-04-27T12:26:21.651Z,49.72
2023-04-27T12:28:50.021Z,49.42
2023-04-27T12:31:23.609Z,49.27
2023-04-27T12:33:52.673Z,48.95
2023-04-27T12:36:21.215Z,49.09
2023-04-27T12:38:49.040Z,48.87
2023-04-27T12:41:17.234Z,49.15
2023-04-27T12:43:46.045Z,49.02
2023-04-27T12:46:14.130Z,48.99
2023-04-27T12:48:41.986Z,48.63
2023-04-27T12:51:11.168Z,48.80
2023-04-27T12:53:39.000Z,48.53
2023-04-27T12:56:07.325Z,48.77
2023-04-27T12:58:35.146Z,48.64
2023-04-27T13:01:02.956Z,48.59
2023-04-27T13:03:31.295Z,48.63
2023-04-27T13:05:59.816Z,48.49
2023-04-27T13:08:27.707Z,48.66
2023-04-27T13:10:55.983Z,48.52
2023-04-27T13:13:23.749Z,48.58
2023-04-27T13:15:51.608Z,48.66
2023-04-27T13:18:19.621Z,48.59
2023-04-27T13:20:48.948Z,48.37
2023-04-27T13:23:17.310Z,48.49
2023-04-27T13:25:45.621Z,48.48
2023-04-27T13:28:13.465Z,48.42
2023-04-27T13:30:41.681Z,48.50
2023-04-27T13:33:21.777Z,48.55
2023-04-27T13:35:52.096Z,47.97
2023-04-27T13:38:20.439Z,48.24
2023-04-27T13:40:48.269Z,48.38
2023-04-27T13:43:16.221Z,48.58
2023-04-27T13:45:45.434Z,48.35
2023-04-27T13:48:14.017Z,48.29
2023-04-27T13:50:41.892Z,48.44
2023-04-27T13:53:10.276Z,48.09
2023-04-27T13:55:38.775Z,47.37
2023-04-27T13:58:06.864Z,47.82
2023-04-27T14:00:35.284Z,47.68
2023-04-27T14:03:04.918Z,47.56
2023-04-27T14:05:33.061Z,47.55
2023-04-27T14:08:01.403Z,46.56
2023-04-27T14:10:30.263Z,47.00
2023-04-27T14:12:58.584Z,47.33
2023-04-27T14:15:26.366Z,47.15
2023-04-27T14:17:54.144Z,46.92
2023-04-27T14:20:22.737Z,47.01
2023-04-27T14:22:50.573Z,46.76
2023-04-27T14:25:19.092Z,46.70
2023-04-27T14:27:46.846Z,47.03
2023-04-27T14:30:15.541Z,46.84
2023-04-27T14:32:43.391Z,46.75
2023-04-27T14:35:11.336Z,46.97
2023-04-27T14:37:39.495Z,46.96
2023-04-27T14:40:08.670Z,46.69
2023-04-27T14:42:36.468Z,46.96
2023-04-27T14:45:04.624Z,46.77
2023-04-27T14:47:32.724Z,46.79
2023-04-27T14:50:01.278Z,46.81
2023-04-27T14:52:29.791Z,46.74
2023-04-27T14:54:59.367Z,46.67
2023-04-27T14:57:27.242Z,46.63
2023-04-27T14:59:55.091Z,46.49
2023-04-27T15:02:23.097Z,46.64
2023-04-27T15:04:51.274Z,46.65
2023-04-27T15:07:21.489Z,46.26
2023-04-27T15:09:51.510Z,46.54
2023-04-27T15:12:19.321Z,46.52
2023-04-27T15:14:48.470Z,46.49
2023-04-27T15:17:16.271Z,46.41
2023-04-27T15:19:44.090Z,46.38
2023-04-27T15:22:14.731Z,46.35
2023-04-27T15:24:43.057Z,46.45
2023-04-27T15:27:10.842Z,46.52
2023-04-27T15:29:38.665Z,46.40
2023-04-27T15:32:06.686Z,46.49
2023-04-27T15:34:34.469Z,46.61
2023-04-27T15:37:03.749Z,46.66
2023-04-27T15:39:32.234Z,46.67
2023-04-27T15:42:01.445Z,46.68
2023-04-27T15:44:29.230Z,46.47
2023-04-27T15:46:57.179Z,46.37
2023-04-27T15:49:25.132Z,46.25
2023-04-27T15:51:55.279Z,46.46
2023-04-27T15:54:23.627Z,46.48
2023-04-27T15:56:51.938Z,46.29
2023-04-27T15:59:19.782Z,46.29
2023-04-27T16:01:47.641Z,46.47
2023-04-27T16:04:15.992Z,46.51
2023-04-27T16:06:44.570Z,46.50
2023-04-27T16:09:13.296Z,46.38
2023-04-27T16:11:42.983Z,46.35
2023-04-27T16:14:10.921Z,46.37
2023-04-27T16:16:38.962Z,46.55
2023-04-27T16:19:08.861Z,46.56
2023-04-27T16:21:37.128Z,46.49
2023-04-27T16:24:05.768Z,46.49
2023-04-27T16:26:33.766Z,46.49
2023-04-27T16:29:01.521Z,46.56
2023-04-27T16:31:29.392Z,46.60
2023-04-27T16:33:57.213Z,46.65
2023-04-27T16:36:25.394Z,46.61
2023-04-27T16:38:53.721Z,46.68
2023-04-27T16:41:22.181Z,46.68
2023-04-27T16:43:51.133Z,46.70
2023-04-27T16:46:18.980Z,46.73
2023-04-27T16:48:46.960Z,46.76
2023-04-27T16:51:15.343Z,46.74
2023-04-27T16:53:43.799Z,46.73
2023-04-27T16:56:13.632Z,46.73
2023-04-27T16:58:41.467Z,46.71
2023-04-27T17:01:09.312Z,46.71
2023-04-27T17:03:37.298Z,46.79
2023-04-27T17:06:05.590Z,46.79
2023-04-27T17:08:34.014Z,46.83
2023-04-27T17:11:02.108Z,46.84
2023-04-27T17:13:31.762Z,46.85
2023-04-27T17:15:59.613Z,46.92
2023-04-27T17:18:27.524Z,46.89
2023-04-27T17:20:55.969Z,47.02
2023-04-27T17:23:24.293Z,47.07
2023-04-27T17:25:52.068Z,46.98
2023-04-27T17:28:19.895Z,47.11
2023-04-27T17:30:47.774Z,47.16
2023-04-27T17:33:16.792Z,47.14
2023-04-27T17:35:47.167Z,47.37
2023-04-27T17:38:16.260Z,47.29
2023-04-27T17:40:44.191Z,47.23
2023-04-27T17:43:12.045Z,47.22
2023-04-27T17:45:39.905Z,47.29
2023-04-27T17:48:07.788Z,47.32
2023-04-27T17:50:37.499Z,47.27
2023-04-27T17:53:05.942Z,47.25
2023-04-27T17:55:33.934Z,47.53
2023-04-27T17:58:04.093Z,47.40
2023-04-27T18:00:32.297Z,47.42
2023-04-27T18:03:00.447Z,47.44
2023-04-27T18:05:29.440Z,47.57
2023-04-27T18:07:57.226Z,47.76
2023-04-27T18:10:25.009Z,48.05
2023-04-27T18:12:52.746Z,47.83
2023-04-27T18:15:20.611Z,47.75
2023-04-27T18:17:49.011Z,47.80
2023-04-27T18:20:17.691Z,47.90
2023-04-27T18:22:45.554Z,47.90
2023-04-27T18:25:13.432Z,47.81
2023-04-27T18:27:43.781Z,47.93
2023-04-27T18:30:11.796Z,47.92
2023-04-27T18:32:42.889Z,47.76
2023-04-27T18:35:11.355Z,48.04
2023-04-27T18:37:39.077Z,48.11
2023-04-27T18:40:07.801Z,48.18
2023-04-27T18:42:35.606Z,48.28
2023-04-27T18:45:04.122Z,48.21
2023-04-27T18:47:32.536Z,48.25
2023-04-27T18:50:00.404Z,48.50
2023-04-27T18:52:28.169Z,48.49
2023-04-27T18:54:56.002Z,48.54
2023-04-27T18:57:26.587Z,48.67
2023-04-27T18:59:54.978Z,48.65
2023-04-27T19:02:25.352Z,48.86
2023-04-27T19:05:07.579Z,48.78
2023-04-27T19:07:40.779Z,48.86
2023-04-27T19:10:10.245Z,48.80
2023-04-27T19:12:38.429Z,48.88
2023-04-27T19:15:07.104Z,48.97
2023-04-27T19:17:35.304Z,49.11
2023-04-27T19:20:03.899Z,49.09
2023-04-27T19:22:34.515Z,48.99
2023-04-27T19:25:04.376Z,49.05
2023-04-27T19:27:32.347Z,49.24
2023-04-27T19:30:01.115Z,49.18
2023-04-27T19:32:28.964Z,49.20
2023-04-27T19:34:58.180Z,49.28
2023-04-27T19:37:28.735Z,49.36
2023-04-27T19:39:57.050Z,49.39
2023-04-27T19:42:25.181Z,49.40
2023-04-27T19:44:52.989Z,49.60
2023-04-27T19:47:21.238Z,49.56
2023-04-27T19:49:49.556Z,49.59
2023-04-27T19:52:17.812Z,49.53
2023-04-27T19:54:51.101Z,49.71
2023-04-27T19:57:19.105Z,49.80
2023-04-27T19:59:47.048Z,49.63
2023-04-27T20:02:16.019Z,49.67
2023-04-27T20:04:44.986Z,49.90
2023-04-27T20:07:13.065Z,50.03
2023-04-27T20:09:40.970Z,50.00
2023-04-27T20:12:19.453Z,49.99
2023-04-27T20:14:57.280Z,49.93
2023-04-27T20:17:26.247Z,50.12
2023-04-27T20:19:57.196Z,50.08
2023-04-27T20:22:24.963Z,50.00
2023-04-27T20:24:53.340Z,50.24
2023-04-27T20:27:21.612Z,50.15
2023-04-27T20:29:50.207Z,50.43
2023-04-27T20:32:18.056Z,50.28
2023-04-27T20:34:45.995Z,50.32
2023-04-27T20:37:13.786Z,50.48
2023-04-27T20:39:42.101Z,50.57
2023-04-27T20:42:12.728Z,50.60
2023-04-27T20:44:40.491Z,50.61
2023-04-27T20:47:08.281Z,50.56
2023-04-27T20:49:36.016Z,50.57
2023-04-27T20:52:03.957Z,50.53
2023-04-27T20:54:33.175Z,50.90
2023-04-27T20:57:02.313Z,51.03
2023-04-27T20:59:30.124Z,50.93
2023-04-27T21:01:57.868Z,50.93
2023-04-27T21:04:25.794Z,51.04
2023-04-27T21:06:53.751Z,51.15
2023-04-27T21:09:22.113Z,51.30
2023-04-27T21:11:50.654Z,51.38
2023-04-27T21:14:18.445Z,51.49
2023-04-27T21:16:46.270Z,51.47
2023-04-27T21:19:16.227Z,51.51
2023-04-27T21:21:44.093Z,51.63
2023-04-27T21:24:12.425Z,51.57
2023-04-27T21:26:42.304Z,51.63
2023-04-27T21:29:10.534Z,51.64
2023-04-27T21:31:38.410Z,51.71
2023-04-27T21:34:06.266Z,51.80
2023-04-27T21:36:34.549Z,51.92
2023-04-27T21:39:03.001Z,51.88
2023-04-27T21:41:30.761Z,51.91
2023-04-27T21:43:58.539Z,51.94
2023-04-27T21:46:26.414Z,51.84
2023-04-27T21:48:54.201Z,52.09
2023-04-27T21:51:22.470Z,52.23
2023-04-27T21:53:50.829Z,52.50
2023-04-27T21:56:18.607Z,52.29
2023-04-27T21:58:46.492Z,52.44
2023-04-27T22:01:14.644Z,52.64
2023-04-27T22:03:42.560Z,52.35
2023-04-27T22:06:10.781Z,52.59
2023-04-27T22:08:38.565Z,52.53
2023-04-27T22:11:06.328Z,52.84
2023-04-27T22:13:34.622Z,52.97
2023-04-27T22:16:02.468Z,52.79
2023-04-27T22:18:30.402Z,52.87
2023-04-27T22:20:58.374Z,53.04
2023-04-27T22:23:26.673Z,53.13
2023-04-27T22:25:54.423Z,53.25
2023-04-27T22:28:22.281Z,53.19
2023-04-27T22:30:50.093Z,53.27
2023-04-27T22:33:18.468Z,53.29
2023-04-27T22:35:46.980Z,53.50
2023-04-27T22:38:14.855Z,53.52
2023-04-27T22:40:42.708Z,53.40
2023-04-27T22:43:10.422Z,53.47
2023-04-27T22:45:39.052Z,53.67
2023-04-27T22:48:07.254Z,53.84
2023-04-27T22:50:35.264Z,53.83
2023-04-27T22:53:03.874Z,53.90
2023-04-27T22:55:31.592Z,53.90
2023-04-27T22:57:59.362Z,53.94
2023-04-27T23:00:27.765Z,53.81
2023-04-27T23:02:56.313Z,54.02
2023-04-27T23:05:24.186Z,54.19
2023-04-27T23:07:52.043Z,54.20
2023-04-27T23:10:19.894Z,54.34
2023-04-27T23:12:47.830Z,54.26
2023-04-27T23:15:16.579Z,54.20
2023-04-27T23:17:44.371Z,54.34
2023-04-27T23:20:24.634Z,54.49
2023-04-27T23:22:56.575Z,54.54
2023-04-27T23:25:24.753Z,54.45
2023-04-27T23:27:53.316Z,54.63
2023-04-27T23:30:22.257Z,54.64
2023-04-27T23:32:50.301Z,54.50
2023-04-27T23:35:18.337Z,54.63
2023-04-27T23:37:46.151Z,54.80
2023-04-27T23:40:14.577Z,54.52
2023-04-27T23:42:43.098Z,54.89
2023-04-27T23:45:11.473Z,54.71
2023-04-27T23:47:39.812Z,54.87
2023-04-27T23:50:08.281Z,54.64
2023-04-27T23:52:36.134Z,54.79
2023-04-27T23:55:04.180Z,54.95
2023-04-27T23:57:32.378Z,55.03
